sensor_id;sensor_type;location;lat;lon;timestamp;P1;durP1;ratioP1;P2;durP2;ratioP2
1679;SDS011;838;51.794;12.258;2023-03-26T00:01:53;3.67;;;1.40;;
1679;SDS011;838;51.794;12.258;2023-03-26T00:04:18;3.20;;;1.70;;
1679;SDS011;838;51.794;12.258;2023-03-26T00:06:45;2.80;;;1.30;;
1679;SDS011;838;51.794;12.258;2023-03-26T00:09:13;3.23;;;1.60;;
1679;SDS011;838;51.794;12.258;2023-03-26T00:11:40;5.87;;;1.90;;
1679;SDS011;838;51.794;12.258;2023-03-26T00:14:07;3.33;;;1.57;;
1679;SDS011;838;51.794;12.258;2023-03-26T00:16:37;4.20;;;1.70;;
1679;SDS011;838;51.794;12.258;2023-03-26T00:19:06;4.57;;;1.60;;
1679;SDS011;838;51.794;12.258;2023-03-26T00:21:33;3.47;;;1.43;;
1679;SDS011;838;51.794;12.258;2023-03-26T00:24:00;4.87;;;1.90;;
1679;SDS011;838;51.794;12.258;2023-03-26T00:26:31;2.80;;;1.50;;
1679;SDS011;838;51.794;12.258;2023-03-26T00:28:58;4.40;;;2.20;;
1679;SDS011;838;51.794;12.258;2023-03-26T00:31:24;3.33;;;1.67;;
1679;SDS011;838;51.794;12.258;2023-03-26T00:33:51;3.50;;;2.00;;
1679;SDS011;838;51.794;12.258;2023-03-26T00:36:20;2.90;;;1.70;;
1679;SDS011;838;51.794;12.258;2023-03-26T00:38:49;2.77;;;1.60;;
1679;SDS011;838;51.794;12.258;2023-03-26T00:41:17;3.43;;;1.70;;
1679;SDS011;838;51.794;12.258;2023-03-26T00:43:52;3.07;;;1.80;;
1679;SDS011;838;51.794;12.258;2023-03-26T00:46:20;3.30;;;1.97;;
1679;SDS011;838;51.794;12.258;2023-03-26T00:48:47;4.00;;;2.00;;
1679;SDS011;838;51.794;12.258;2023-03-26T00:51:13;2.70;;;1.40;;
1679;SDS011;838;51.794;12.258;2023-03-26T00:53:40;3.50;;;2.00;;
1679;SDS011;838;51.794;12.258;2023-03-26T00:56:07;4.93;;;1.87;;
1679;SDS011;838;51.794;12.258;2023-03-26T00:58:33;4.13;;;1.73;;
1679;SDS011;838;51.794;12.258;2023-03-26T01:01:01;3.33;;;1.90;;
1679;SDS011;838;51.794;12.258;2023-03-26T01:03:31;4.33;;;2.17;;
1679;SDS011;838;51.794;12.258;2023-03-26T01:06:07;3.20;;;1.93;;
1679;SDS011;838;51.794;12.258;2023-03-26T01:08:41;4.33;;;1.90;;
1679;SDS011;838;51.794;12.258;2023-03-26T01:11:20;3.23;;;1.80;;
1679;SDS011;838;51.794;12.258;2023-03-26T01:13:49;3.30;;;1.70;;
1679;SDS011;838;51.794;12.258;2023-03-26T01:16:40;3.83;;;2.33;;
1679;SDS011;838;51.794;12.258;2023-03-26T01:19:07;4.70;;;2.00;;
1679;SDS011;838;51.794;12.258;2023-03-26T01:21:40;2.93;;;1.73;;
1679;SDS011;838;51.794;12.258;2023-03-26T01:24:07;3.87;;;1.80;;
1679;SDS011;838;51.794;12.258;2023-03-26T01:32:00;3.20;;;1.80;;
1679;SDS011;838;51.794;12.258;2023-03-26T01:40:28;4.20;;;2.10;;
1679;SDS011;838;51.794;12.258;2023-03-26T01:43:16;4.20;;;2.17;;
1679;SDS011;838;51.794;12.258;2023-03-26T01:45:45;3.50;;;1.97;;
1679;SDS011;838;51.794;12.258;2023-03-26T01:48:13;2.77;;;1.63;;
1679;SDS011;838;51.794;12.258;2023-03-26T01:50:39;3.27;;;2.00;;
1679;SDS011;838;51.794;12.258;2023-03-26T01:53:04;2.90;;;1.90;;
1679;SDS011;838;51.794;12.258;2023-03-26T01:55:45;3.37;;;1.90;;
1679;SDS011;838;51.794;12.258;2023-03-26T02:04:32;4.77;;;2.17;;
1679;SDS011;838;51.794;12.258;2023-03-26T02:09:48;3.30;;;1.93;;
1679;SDS011;838;51.794;12.258;2023-03-26T02:12:18;4.03;;;1.70;;
1679;SDS011;838;51.794;12.258;2023-03-26T02:14:46;5.03;;;2.10;;
1679;SDS011;838;51.794;12.258;2023-03-26T02:17:12;4.20;;;1.90;;
1679;SDS011;838;51.794;12.258;2023-03-26T02:19:37;2.80;;;1.80;;
1679;SDS011;838;51.794;12.258;2023-03-26T02:22:09;2.90;;;1.80;;
1679;SDS011;838;51.794;12.258;2023-03-26T02:24:40;3.60;;;1.93;;
1679;SDS011;838;51.794;12.258;2023-03-26T02:27:06;4.53;;;2.10;;
1679;SDS011;838;51.794;12.258;2023-03-26T02:29:35;3.77;;;2.07;;
1679;SDS011;838;51.794;12.258;2023-03-26T02:32:05;3.57;;;2.17;;
1679;SDS011;838;51.794;12.258;2023-03-26T02:34:32;5.20;;;1.93;;
1679;SDS011;838;51.794;12.258;2023-03-26T02:36:58;3.83;;;2.07;;
1679;SDS011;838;51.794;12.258;2023-03-26T02:39:24;3.50;;;2.30;;
1679;SDS011;838;51.794;12.258;2023-03-26T02:41:50;5.47;;;2.13;;
1679;SDS011;838;51.794;12.258;2023-03-26T02:44:16;2.90;;;1.90;;
1679;SDS011;838;51.794;12.258;2023-03-26T02:46:42;4.97;;;2.47;;
1679;SDS011;838;51.794;12.258;2023-03-26T02:49:08;3.17;;;2.20;;
1679;SDS011;838;51.794;12.258;2023-03-26T02:51:34;3.77;;;2.53;;
1679;SDS011;838;51.794;12.258;2023-03-26T02:54:01;4.23;;;2.70;;
1679;SDS011;838;51.794;12.258;2023-03-26T02:56:28;3.17;;;1.90;;
1679;SDS011;838;51.794;12.258;2023-03-26T02:58:54;4.30;;;2.20;;
1679;SDS011;838;51.794;12.258;2023-03-26T03:01:19;4.00;;;2.40;;
1679;SDS011;838;51.794;12.258;2023-03-26T03:03:46;4.20;;;2.00;;
1679;SDS011;838;51.794;12.258;2023-03-26T03:06:13;2.90;;;1.90;;
1679;SDS011;838;51.794;12.258;2023-03-26T03:08:41;3.33;;;1.83;;
1679;SDS011;838;51.794;12.258;2023-03-26T03:11:10;4.50;;;2.23;;
1679;SDS011;838;51.794;12.258;2023-03-26T03:13:37;3.30;;;2.17;;
1679;SDS011;838;51.794;12.258;2023-03-26T03:16:03;3.30;;;2.07;;
1679;SDS011;838;51.794;12.258;2023-03-26T03:18:29;3.33;;;2.10;;
1679;SDS011;838;51.794;12.258;2023-03-26T03:20:55;3.73;;;2.33;;
1679;SDS011;838;51.794;12.258;2023-03-26T03:23:21;3.00;;;2.00;;
1679;SDS011;838;51.794;12.258;2023-03-26T03:25:46;4.17;;;2.23;;
1679;SDS011;838;51.794;12.258;2023-03-26T03:28:13;3.63;;;2.03;;
1679;SDS011;838;51.794;12.258;2023-03-26T03:30:42;2.80;;;1.70;;
1679;SDS011;838;51.794;12.258;2023-03-26T03:33:08;5.33;;;2.13;;
1679;SDS011;838;51.794;12.258;2023-03-26T03:35:34;3.03;;;1.77;;
1679;SDS011;838;51.794;12.258;2023-03-26T03:38:01;3.13;;;1.80;;
1679;SDS011;838;51.794;12.258;2023-03-26T03:40:27;4.30;;;2.03;;
1679;SDS011;838;51.794;12.258;2023-03-26T03:42:53;3.90;;;1.90;;
1679;SDS011;838;51.794;12.258;2023-03-26T03:45:19;7.50;;;2.40;;
1679;SDS011;838;51.794;12.258;2023-03-26T03:47:45;4.27;;;2.10;;
1679;SDS011;838;51.794;12.258;2023-03-26T03:50:10;3.20;;;2.00;;
1679;SDS011;838;51.794;12.258;2023-03-26T03:52:36;3.10;;;1.67;;
1679;SDS011;838;51.794;12.258;2023-03-26T03:55:02;3.93;;;2.13;;
1679;SDS011;838;51.794;12.258;2023-03-26T03:57:28;4.47;;;2.10;;
1679;SDS011;838;51.794;12.258;2023-03-26T03:59:56;3.90;;;2.27;;
1679;SDS011;838;51.794;12.258;2023-03-26T04:02:22;3.37;;;1.97;;
1679;SDS011;838;51.794;12.258;2023-03-26T04:04:58;4.80;;;2.20;;
1679;SDS011;838;51.794;12.258;2023-03-26T04:07:25;3.40;;;2.10;;
1679;SDS011;838;51.794;12.258;2023-03-26T04:09:52;4.43;;;2.23;;
1679;SDS011;838;51.794;12.258;2023-03-26T04:12:18;4.40;;;2.10;;
1679;SDS011;838;51.794;12.258;2023-03-26T04:14:43;3.90;;;2.27;;
1679;SDS011;838;51.794;12.258;2023-03-26T04:17:09;4.90;;;2.40;;
1679;SDS011;838;51.794;12.258;2023-03-26T04:19:37;3.70;;;2.30;;
1679;SDS011;838;51.794;12.258;2023-03-26T04:22:04;5.33;;;2.60;;
1679;SDS011;838;51.794;12.258;2023-03-26T04:24:30;5.43;;;2.30;;
1679;SDS011;838;51.794;12.258;2023-03-26T04:27:02;3.33;;;2.27;;
1679;SDS011;838;51.794;12.258;2023-03-26T04:29:30;4.23;;;2.20;;
1679;SDS011;838;51.794;12.258;2023-03-26T04:32:07;4.30;;;2.33;;
1679;SDS011;838;51.794;12.258;2023-03-26T04:34:38;3.07;;;2.00;;
1679;SDS011;838;51.794;12.258;2023-03-26T04:37:04;8.17;;;2.00;;
1679;SDS011;838;51.794;12.258;2023-03-26T04:39:29;3.47;;;2.07;;
1679;SDS011;838;51.794;12.258;2023-03-26T04:41:58;3.70;;;2.13;;
1679;SDS011;838;51.794;12.258;2023-03-26T04:44:24;7.10;;;2.10;;
1679;SDS011;838;51.794;12.258;2023-03-26T04:46:51;2.97;;;1.83;;
1679;SDS011;838;51.794;12.258;2023-03-26T04:49:19;7.77;;;2.30;;
1679;SDS011;838;51.794;12.258;2023-03-26T04:51:45;4.70;;;1.87;;
1679;SDS011;838;51.794;12.258;2023-03-26T04:54:14;3.30;;;2.10;;
1679;SDS011;838;51.794;12.258;2023-03-26T04:59:30;4.70;;;2.60;;
1679;SDS011;838;51.794;12.258;2023-03-26T05:02:01;5.67;;;2.70;;
1679;SDS011;838;51.794;12.258;2023-03-26T05:04:29;4.80;;;2.10;;
1679;SDS011;838;51.794;12.258;2023-03-26T05:06:55;6.00;;;2.57;;
1679;SDS011;838;51.794;12.258;2023-03-26T05:09:25;5.57;;;2.37;;
1679;SDS011;838;51.794;12.258;2023-03-26T05:11:51;4.70;;;2.20;;
1679;SDS011;838;51.794;12.258;2023-03-26T05:14:17;5.40;;;2.53;;
1679;SDS011;838;51.794;12.258;2023-03-26T05:16:44;6.10;;;2.40;;
1679;SDS011;838;51.794;12.258;2023-03-26T05:19:12;7.37;;;3.20;;
1679;SDS011;838;51.794;12.258;2023-03-26T05:21:38;6.60;;;3.47;;
1679;SDS011;838;51.794;12.258;2023-03-26T05:24:03;5.03;;;2.50;;
1679;SDS011;838;51.794;12.258;2023-03-26T05:26:30;4.13;;;2.77;;
1679;SDS011;838;51.794;12.258;2023-03-26T05:28:57;4.37;;;2.20;;
1679;SDS011;838;51.794;12.258;2023-03-26T05:31:23;4.30;;;2.70;;
1679;SDS011;838;51.794;12.258;2023-03-26T05:33:51;5.30;;;2.40;;
1679;SDS011;838;51.794;12.258;2023-03-26T05:36:17;4.10;;;2.37;;
1679;SDS011;838;51.794;12.258;2023-03-26T05:38:43;4.30;;;2.67;;
1679;SDS011;838;51.794;12.258;2023-03-26T05:41:11;5.37;;;2.93;;
1679;SDS011;838;51.794;12.258;2023-03-26T05:43:37;5.63;;;2.83;;
1679;SDS011;838;51.794;12.258;2023-03-26T05:46:03;5.23;;;2.60;;
1679;SDS011;838;51.794;12.258;2023-03-26T05:48:29;4.17;;;2.77;;
1679;SDS011;838;51.794;12.258;2023-03-26T05:50:56;5.20;;;3.00;;
1679;SDS011;838;51.794;12.258;2023-03-26T05:53:22;4.70;;;2.47;;
1679;SDS011;838;51.794;12.258;2023-03-26T05:55:50;6.90;;;2.80;;
1679;SDS011;838;51.794;12.258;2023-03-26T05:58:26;4.80;;;2.63;;
1679;SDS011;838;51.794;12.258;2023-03-26T06:00:57;7.90;;;2.40;;
1679;SDS011;838;51.794;12.258;2023-03-26T06:03:26;4.80;;;2.80;;
1679;SDS011;838;51.794;12.258;2023-03-26T06:05:52;5.00;;;2.30;;
1679;SDS011;838;51.794;12.258;2023-03-26T06:08:18;4.07;;;2.50;;
1679;SDS011;838;51.794;12.258;2023-03-26T06:10:47;5.50;;;2.60;;
1679;SDS011;838;51.794;12.258;2023-03-26T06:13:14;3.90;;;2.27;;
1679;SDS011;838;51.794;12.258;2023-03-26T06:15:41;6.00;;;2.93;;
1679;SDS011;838;51.794;12.258;2023-03-26T06:18:07;4.53;;;2.47;;
1679;SDS011;838;51.794;12.258;2023-03-26T06:20:33;4.27;;;2.47;;
1679;SDS011;838;51.794;12.258;2023-03-26T06:22:59;4.10;;;2.03;;
1679;SDS011;838;51.794;12.258;2023-03-26T06:25:25;4.20;;;2.40;;
1679;SDS011;838;51.794;12.258;2023-03-26T06:27:51;4.07;;;2.37;;
1679;SDS011;838;51.794;12.258;2023-03-26T06:30:16;4.10;;;2.80;;
1679;SDS011;838;51.794;12.258;2023-03-26T06:32:42;4.40;;;2.20;;
1679;SDS011;838;51.794;12.258;2023-03-26T06:35:08;4.53;;;2.30;;
1679;SDS011;838;51.794;12.258;2023-03-26T06:37:35;4.10;;;2.73;;
1679;SDS011;838;51.794;12.258;2023-03-26T06:40:01;3.80;;;2.10;;
1679;SDS011;838;51.794;12.258;2023-03-26T06:42:27;4.37;;;2.80;;
1679;SDS011;838;51.794;12.258;2023-03-26T06:44:53;6.20;;;2.40;;
1679;SDS011;838;51.794;12.258;2023-03-26T06:47:18;5.20;;;2.50;;
1679;SDS011;838;51.794;12.258;2023-03-26T06:49:44;4.33;;;3.30;;
1679;SDS011;838;51.794;12.258;2023-03-26T06:52:10;4.93;;;2.60;;
1679;SDS011;838;51.794;12.258;2023-03-26T06:54:36;4.53;;;3.20;;
1679;SDS011;838;51.794;12.258;2023-03-26T06:57:02;5.03;;;3.00;;
1679;SDS011;838;51.794;12.258;2023-03-26T06:59:28;5.33;;;2.50;;
1679;SDS011;838;51.794;12.258;2023-03-26T07:01:54;4.17;;;2.60;;
1679;SDS011;838;51.794;12.258;2023-03-26T07:04:20;5.40;;;2.60;;
1679;SDS011;838;51.794;12.258;2023-03-26T07:06:45;4.00;;;2.40;;
1679;SDS011;838;51.794;12.258;2023-03-26T07:09:11;4.80;;;2.60;;
1679;SDS011;838;51.794;12.258;2023-03-26T07:11:37;3.90;;;2.77;;
1679;SDS011;838;51.794;12.258;2023-03-26T07:14:02;7.57;;;2.60;;
1679;SDS011;838;51.794;12.258;2023-03-26T07:16:28;4.67;;;2.47;;
1679;SDS011;838;51.794;12.258;2023-03-26T07:18:54;5.23;;;2.33;;
1679;SDS011;838;51.794;12.258;2023-03-26T07:21:20;4.83;;;2.90;;
1679;SDS011;838;51.794;12.258;2023-03-26T07:23:47;4.07;;;2.90;;
1679;SDS011;838;51.794;12.258;2023-03-26T07:29:06;5.53;;;2.53;;
1679;SDS011;838;51.794;12.258;2023-03-26T07:35:02;5.23;;;2.90;;
1679;SDS011;838;51.794;12.258;2023-03-26T07:40:37;5.23;;;2.80;;
1679;SDS011;838;51.794;12.258;2023-03-26T07:43:20;4.60;;;2.97;;
1679;SDS011;838;51.794;12.258;2023-03-26T07:46:13;4.90;;;3.00;;
1679;SDS011;838;51.794;12.258;2023-03-26T07:48:43;6.97;;;4.10;;
1679;SDS011;838;51.794;12.258;2023-03-26T07:51:12;6.50;;;3.40;;
1679;SDS011;838;51.794;12.258;2023-03-26T07:53:38;5.00;;;3.00;;
1679;SDS011;838;51.794;12.258;2023-03-26T08:04:10;4.33;;;3.07;;
1679;SDS011;838;51.794;12.258;2023-03-26T08:10:02;5.77;;;3.50;;
1679;SDS011;838;51.794;12.258;2023-03-26T08:12:36;5.40;;;3.20;;
1679;SDS011;838;51.794;12.258;2023-03-26T08:20:50;5.40;;;3.57;;
1679;SDS011;838;51.794;12.258;2023-03-26T08:31:35;5.00;;;3.30;;
1679;SDS011;838;51.794;12.258;2023-03-26T08:34:03;6.60;;;2.87;;
1679;SDS011;838;51.794;12.258;2023-03-26T08:36:29;6.60;;;3.13;;
1679;SDS011;838;51.794;12.258;2023-03-26T08:38:55;6.10;;;3.30;;
1679;SDS011;838;51.794;12.258;2023-03-26T08:50:40;6.30;;;3.07;;
1679;SDS011;838;51.794;12.258;2023-03-26T08:53:22;4.73;;;3.37;;
1679;SDS011;838;51.794;12.258;2023-03-26T09:27:30;9.47;;;6.10;;
1679;SDS011;838;51.794;12.258;2023-03-26T09:39:34;20.10;;;12.40;;
1679;SDS011;838;51.794;12.258;2023-03-26T09:42:30;9.63;;;6.60;;
1679;SDS011;838;51.794;12.258;2023-03-26T09:48:02;5.07;;;3.13;;
1679;SDS011;838;51.794;12.258;2023-03-26T10:02:31;5.70;;;3.60;;
1679;SDS011;838;51.794;12.258;2023-03-26T10:10:56;5.17;;;3.30;;
1679;SDS011;838;51.794;12.258;2023-03-26T10:16:33;7.73;;;3.50;;
1679;SDS011;838;51.794;12.258;2023-03-26T10:19:23;5.87;;;3.67;;
1679;SDS011;838;51.794;12.258;2023-03-26T10:24:52;8.00;;;5.03;;
1679;SDS011;838;51.794;12.258;2023-03-26T10:30:06;5.63;;;2.70;;
1679;SDS011;838;51.794;12.258;2023-03-26T10:50:19;5.93;;;3.87;;
1679;SDS011;838;51.794;12.258;2023-03-26T10:55:43;7.23;;;3.90;;
1679;SDS011;838;51.794;12.258;2023-03-26T11:00:49;5.83;;;3.47;;
1679;SDS011;838;51.794;12.258;2023-03-26T11:17:02;8.43;;;4.03;;
1679;SDS011;838;51.794;12.258;2023-03-26T11:20:28;6.23;;;3.90;;
1679;SDS011;838;51.794;12.258;2023-03-26T11:22:49;5.77;;;3.70;;
1679;SDS011;838;51.794;12.258;2023-03-26T11:31:18;7.37;;;3.83;;
1679;SDS011;838;51.794;12.258;2023-03-26T11:33:54;4.83;;;2.50;;
1679;SDS011;838;51.794;12.258;2023-03-26T11:36:24;4.57;;;2.90;;
1679;SDS011;838;51.794;12.258;2023-03-26T11:38:56;4.80;;;2.23;;
1679;SDS011;838;51.794;12.258;2023-03-26T11:41:28;5.90;;;2.90;;
1679;SDS011;838;51.794;12.258;2023-03-26T11:44:02;4.80;;;2.40;;
1679;SDS011;838;51.794;12.258;2023-03-26T11:46:51;5.37;;;2.43;;
1679;SDS011;838;51.794;12.258;2023-03-26T11:49:25;6.07;;;3.90;;
1679;SDS011;838;51.794;12.258;2023-03-26T11:51:53;6.07;;;2.70;;
1679;SDS011;838;51.794;12.258;2023-03-26T11:54:19;2.90;;;1.90;;
1679;SDS011;838;51.794;12.258;2023-03-26T12:02:23;6.57;;;2.67;;
1679;SDS011;838;51.794;12.258;2023-03-26T12:05:02;5.37;;;2.23;;
1679;SDS011;838;51.794;12.258;2023-03-26T12:07:36;5.00;;;2.77;;
1679;SDS011;838;51.794;12.258;2023-03-26T12:10:21;4.27;;;2.33;;
1679;SDS011;838;51.794;12.258;2023-03-26T12:12:53;5.07;;;2.37;;
1679;SDS011;838;51.794;12.258;2023-03-26T12:15:22;6.30;;;3.07;;
1679;SDS011;838;51.794;12.258;2023-03-26T12:17:50;7.63;;;2.90;;
1679;SDS011;838;51.794;12.258;2023-03-26T12:22:59;7.03;;;2.63;;
1679;SDS011;838;51.794;12.258;2023-03-26T12:25:27;6.03;;;3.03;;
1679;SDS011;838;51.794;12.258;2023-03-26T12:30:34;4.13;;;2.47;;
1679;SDS011;838;51.794;12.258;2023-03-26T12:33:05;4.10;;;2.23;;
1679;SDS011;838;51.794;12.258;2023-03-26T12:35:40;5.00;;;2.30;;
1679;SDS011;838;51.794;12.258;2023-03-26T12:38:13;3.80;;;2.40;;
1679;SDS011;838;51.794;12.258;2023-03-26T12:40:46;4.53;;;2.70;;
1679;SDS011;838;51.794;12.258;2023-03-26T12:43:24;4.30;;;2.10;;
1679;SDS011;838;51.794;12.258;2023-03-26T12:45:55;3.37;;;1.80;;
1679;SDS011;838;51.794;12.258;2023-03-26T12:48:23;5.67;;;2.83;;
1679;SDS011;838;51.794;12.258;2023-03-26T12:56:29;4.90;;;2.77;;
1679;SDS011;838;51.794;12.258;2023-03-26T12:59:08;4.73;;;2.20;;
1679;SDS011;838;51.794;12.258;2023-03-26T13:01:48;3.10;;;1.80;;
1679;SDS011;838;51.794;12.258;2023-03-26T13:12:40;3.47;;;1.60;;
1679;SDS011;838;51.794;12.258;2023-03-26T13:15:31;5.57;;;2.27;;
1679;SDS011;838;51.794;12.258;2023-03-26T13:18:20;4.07;;;1.60;;
1679;SDS011;838;51.794;12.258;2023-03-26T13:26:30;3.37;;;1.67;;
1679;SDS011;838;51.794;12.258;2023-03-26T13:29:14;6.47;;;1.93;;
1679;SDS011;838;51.794;12.258;2023-03-26T13:34:47;4.73;;;2.10;;
1679;SDS011;838;51.794;12.258;2023-03-26T13:48:12;6.97;;;2.60;;
1679;SDS011;838;51.794;12.258;2023-03-26T13:50:43;5.07;;;3.07;;
1679;SDS011;838;51.794;12.258;2023-03-26T13:53:22;6.03;;;2.20;;
1679;SDS011;838;51.794;12.258;2023-03-26T13:55:53;7.37;;;3.03;;
1679;SDS011;838;51.794;12.258;2023-03-26T14:01:02;5.90;;;2.83;;
1679;SDS011;838;51.794;12.258;2023-03-26T14:03:47;5.43;;;2.50;;
1679;SDS011;838;51.794;12.258;2023-03-26T14:06:27;6.57;;;3.00;;
1679;SDS011;838;51.794;12.258;2023-03-26T14:08:59;10.33;;;3.80;;
1679;SDS011;838;51.794;12.258;2023-03-26T14:11:52;7.50;;;4.50;;
1679;SDS011;838;51.794;12.258;2023-03-26T14:14:33;5.20;;;2.63;;
1679;SDS011;838;51.794;12.258;2023-03-26T14:17:24;6.23;;;2.53;;
1679;SDS011;838;51.794;12.258;2023-03-26T14:34:26;6.47;;;3.10;;
1679;SDS011;838;51.794;12.258;2023-03-26T14:42:41;4.90;;;2.60;;
1679;SDS011;838;51.794;12.258;2023-03-26T14:54:11;9.77;;;3.90;;
1679;SDS011;838;51.794;12.258;2023-03-26T14:56:51;7.67;;;3.20;;
1679;SDS011;838;51.794;12.258;2023-03-26T15:00:26;7.20;;;4.40;;
1679;SDS011;838;51.794;12.258;2023-03-26T15:17:03;4.53;;;2.80;;
1679;SDS011;838;51.794;12.258;2023-03-26T15:47:52;5.90;;;3.40;;
1679;SDS011;838;51.794;12.258;2023-03-26T15:50:31;8.80;;;3.37;;
1679;SDS011;838;51.794;12.258;2023-03-26T15:53:26;6.07;;;3.40;;
1679;SDS011;838;51.794;12.258;2023-03-26T16:01:52;4.70;;;2.30;;
1679;SDS011;838;51.794;12.258;2023-03-26T16:10:24;3.90;;;1.67;;
1679;SDS011;838;51.794;12.258;2023-03-26T16:21:24;9.80;;;3.00;;
1679;SDS011;838;51.794;12.258;2023-03-26T16:45:57;3.33;;;1.70;;
1679;SDS011;838;51.794;12.258;2023-03-26T16:48:37;4.27;;;1.90;;
1679;SDS011;838;51.794;12.258;2023-03-26T17:05:16;3.10;;;1.40;;
1679;SDS011;838;51.794;12.258;2023-03-26T17:16:29;5.53;;;2.00;;
1679;SDS011;838;51.794;12.258;2023-03-26T17:40:51;3.83;;;2.00;;
1679;SDS011;838;51.794;12.258;2023-03-26T17:46:18;3.47;;;2.27;;
1679;SDS011;838;51.794;12.258;2023-03-26T17:52:02;3.90;;;2.50;;
1679;SDS011;838;51.794;12.258;2023-03-26T17:54:42;4.53;;;2.57;;
1679;SDS011;838;51.794;12.258;2023-03-26T17:59:48;3.30;;;2.10;;
1679;SDS011;838;51.794;12.258;2023-03-26T18:02:19;5.20;;;2.20;;
1679;SDS011;838;51.794;12.258;2023-03-26T18:04:51;6.23;;;2.80;;
1679;SDS011;838;51.794;12.258;2023-03-26T18:18:49;5.77;;;5.03;;
1679;SDS011;838;51.794;12.258;2023-03-26T18:21:19;6.50;;;5.80;;
1679;SDS011;838;51.794;12.258;2023-03-26T18:23:53;6.80;;;5.37;;
1679;SDS011;838;51.794;12.258;2023-03-26T18:26:22;5.80;;;3.40;;
1679;SDS011;838;51.794;12.258;2023-03-26T18:29:19;5.73;;;3.40;;
1679;SDS011;838;51.794;12.258;2023-03-26T18:31:56;6.60;;;3.70;;
1679;SDS011;838;51.794;12.258;2023-03-26T18:34:28;4.80;;;3.50;;
1679;SDS011;838;51.794;12.258;2023-03-26T18:39:57;4.47;;;2.80;;
1679;SDS011;838;51.794;12.258;2023-03-26T18:42:36;4.30;;;2.97;;
1679;SDS011;838;51.794;12.258;2023-03-26T18:45:08;6.80;;;3.37;;
1679;SDS011;838;51.794;12.258;2023-03-26T18:47:47;5.20;;;3.43;;
1679;SDS011;838;51.794;12.258;2023-03-26T18:50:16;9.70;;;5.37;;
1679;SDS011;838;51.794;12.258;2023-03-26T18:52:47;9.80;;;5.90;;
1679;SDS011;838;51.794;12.258;2023-03-26T18:55:12;7.60;;;5.60;;
1679;SDS011;838;51.794;12.258;2023-03-26T18:57:39;7.37;;;5.23;;
1679;SDS011;838;51.794;12.258;2023-03-26T19:00:20;5.60;;;3.80;;
1679;SDS011;838;51.794;12.258;2023-03-26T19:02:47;5.40;;;4.13;;
1679;SDS011;838;51.794;12.258;2023-03-26T19:05:41;6.53;;;4.47;;
1679;SDS011;838;51.794;12.258;2023-03-26T19:08:07;6.07;;;4.10;;
1679;SDS011;838;51.794;12.258;2023-03-26T19:10:34;8.50;;;5.17;;
1679;SDS011;838;51.794;12.258;2023-03-26T19:13:02;8.20;;;5.33;;
1679;SDS011;838;51.794;12.258;2023-03-26T19:15:31;7.53;;;5.27;;
1679;SDS011;838;51.794;12.258;2023-03-26T19:18:02;7.60;;;5.60;;
1679;SDS011;838;51.794;12.258;2023-03-26T19:20:38;9.03;;;5.47;;
1679;SDS011;838;51.794;12.258;2023-03-26T19:23:38;6.70;;;4.17;;
1679;SDS011;838;51.794;12.258;2023-03-26T19:26:06;8.20;;;5.97;;
1679;SDS011;838;51.794;12.258;2023-03-26T19:28:35;7.57;;;5.87;;
1679;SDS011;838;51.794;12.258;2023-03-26T19:31:15;8.43;;;5.40;;
1679;SDS011;838;51.794;12.258;2023-03-26T19:33:58;5.77;;;4.07;;
1679;SDS011;838;51.794;12.258;2023-03-26T19:36:50;9.90;;;5.53;;
1679;SDS011;838;51.794;12.258;2023-03-26T19:39:36;11.00;;;5.60;;
1679;SDS011;838;51.794;12.258;2023-03-26T19:42:11;11.80;;;6.30;;
1679;SDS011;838;51.794;12.258;2023-03-26T19:44:40;6.70;;;4.30;;
1679;SDS011;838;51.794;12.258;2023-03-26T19:47:14;9.67;;;5.47;;
1679;SDS011;838;51.794;12.258;2023-03-26T19:54:50;8.83;;;4.50;;
1679;SDS011;838;51.794;12.258;2023-03-26T19:57:18;6.70;;;4.80;;
1679;SDS011;838;51.794;12.258;2023-03-26T19:59:45;9.60;;;6.07;;
1679;SDS011;838;51.794;12.258;2023-03-26T20:02:11;10.13;;;6.83;;
1679;SDS011;838;51.794;12.258;2023-03-26T20:04:39;17.27;;;9.33;;
1679;SDS011;838;51.794;12.258;2023-03-26T20:07:11;12.60;;;7.23;;
1679;SDS011;838;51.794;12.258;2023-03-26T20:09:41;15.77;;;6.50;;
1679;SDS011;838;51.794;12.258;2023-03-26T20:12:09;8.77;;;6.10;;
1679;SDS011;838;51.794;12.258;2023-03-26T20:14:36;8.00;;;6.17;;
1679;SDS011;838;51.794;12.258;2023-03-26T20:17:02;13.93;;;7.10;;
1679;SDS011;838;51.794;12.258;2023-03-26T20:19:30;10.57;;;6.53;;
1679;SDS011;838;51.794;12.258;2023-03-26T20:21:56;14.30;;;7.27;;
1679;SDS011;838;51.794;12.258;2023-03-26T20:24:22;14.53;;;6.93;;
1679;SDS011;838;51.794;12.258;2023-03-26T20:26:50;10.53;;;5.77;;
1679;SDS011;838;51.794;12.258;2023-03-26T20:29:15;9.97;;;5.90;;
1679;SDS011;838;51.794;12.258;2023-03-26T20:31:43;7.00;;;4.90;;
1679;SDS011;838;51.794;12.258;2023-03-26T20:34:17;7.80;;;4.63;;
1679;SDS011;838;51.794;12.258;2023-03-26T20:36:44;7.20;;;4.47;;
1679;SDS011;838;51.794;12.258;2023-03-26T20:39:11;8.40;;;4.53;;
1679;SDS011;838;51.794;12.258;2023-03-26T20:41:44;5.40;;;3.67;;
1679;SDS011;838;51.794;12.258;2023-03-26T20:44:12;8.60;;;4.67;;
1679;SDS011;838;51.794;12.258;2023-03-26T20:46:40;9.83;;;5.63;;
1679;SDS011;838;51.794;12.258;2023-03-26T20:49:07;5.90;;;4.50;;
1679;SDS011;838;51.794;12.258;2023-03-26T20:51:34;8.43;;;5.33;;
1679;SDS011;838;51.794;12.258;2023-03-26T20:54:07;7.57;;;4.60;;
1679;SDS011;838;51.794;12.258;2023-03-26T20:56:39;10.10;;;6.50;;
1679;SDS011;838;51.794;12.258;2023-03-26T20:59:06;13.73;;;8.40;;
1679;SDS011;838;51.794;12.258;2023-03-26T21:01:34;5.90;;;4.30;;
1679;SDS011;838;51.794;12.258;2023-03-26T21:04:00;10.77;;;6.80;;
1679;SDS011;838;51.794;12.258;2023-03-26T21:06:28;11.70;;;7.10;;
1679;SDS011;838;51.794;12.258;2023-03-26T21:08:54;10.10;;;6.77;;
1679;SDS011;838;51.794;12.258;2023-03-26T21:12:03;11.67;;;8.40;;
1679;SDS011;838;51.794;12.258;2023-03-26T21:16:51;14.13;;;7.00;;
1679;SDS011;838;51.794;12.258;2023-03-26T21:19:18;11.33;;;5.70;;
1679;SDS011;838;51.794;12.258;2023-03-26T21:22:05;7.90;;;4.90;;
1679;SDS011;838;51.794;12.258;2023-03-26T21:25:34;11.00;;;4.30;;
1679;SDS011;838;51.794;12.258;2023-03-26T21:27:47;9.87;;;4.93;;
1679;SDS011;838;51.794;12.258;2023-03-26T21:30:22;11.87;;;5.53;;
1679;SDS011;838;51.794;12.258;2023-03-26T21:32:48;8.13;;;4.77;;
1679;SDS011;838;51.794;12.258;2023-03-26T21:35:15;13.30;;;3.93;;
1679;SDS011;838;51.794;12.258;2023-03-26T21:37:42;12.37;;;4.00;;
1679;SDS011;838;51.794;12.258;2023-03-26T21:40:10;8.30;;;3.87;;
1679;SDS011;838;51.794;12.258;2023-03-26T21:42:39;7.20;;;3.33;;
1679;SDS011;838;51.794;12.258;2023-03-26T21:45:06;6.23;;;3.47;;
1679;SDS011;838;51.794;12.258;2023-03-26T21:47:33;10.07;;;3.40;;
1679;SDS011;838;51.794;12.258;2023-03-26T21:49:59;8.77;;;3.40;;
1679;SDS011;838;51.794;12.258;2023-03-26T21:52:25;8.53;;;4.00;;
1679;SDS011;838;51.794;12.258;2023-03-26T21:54:51;7.20;;;3.00;;
1679;SDS011;838;51.794;12.258;2023-03-26T21:57:21;6.60;;;3.93;;
1679;SDS011;838;51.794;12.258;2023-03-26T22:00:08;6.17;;;3.53;;
1679;SDS011;838;51.794;12.258;2023-03-26T22:02:41;6.53;;;3.33;;
1679;SDS011;838;51.794;12.258;2023-03-26T22:05:15;6.70;;;3.50;;
1679;SDS011;838;51.794;12.258;2023-03-26T22:07:56;11.33;;;5.10;;
1679;SDS011;838;51.794;12.258;2023-03-26T22:10:24;5.53;;;4.07;;
1679;SDS011;838;51.794;12.258;2023-03-26T22:12:51;10.63;;;3.67;;
1679;SDS011;838;51.794;12.258;2023-03-26T22:15:16;7.77;;;2.97;;
1679;SDS011;838;51.794;12.258;2023-03-26T22:17:43;10.73;;;3.73;;
1679;SDS011;838;51.794;12.258;2023-03-26T22:20:09;10.87;;;4.03;;
1679;SDS011;838;51.794;12.258;2023-03-26T22:22:36;8.70;;;3.50;;
1679;SDS011;838;51.794;12.258;2023-03-26T22:25:03;9.00;;;3.83;;
1679;SDS011;838;51.794;12.258;2023-03-26T22:27:29;7.50;;;3.20;;
1679;SDS011;838;51.794;12.258;2023-03-26T22:29:55;11.50;;;5.30;;
1679;SDS011;838;51.794;12.258;2023-03-26T22:32:20;10.13;;;3.50;;
1679;SDS011;838;51.794;12.258;2023-03-26T22:34:47;8.03;;;4.40;;